sensor_id;sensor_type;location;lat;lon;timestamp;P1;durP1;ratioP1;P2;durP2;ratioP2
23236;SDS011;11787;52.018;8.570;2023-05-08T00:01:35;7.05;;;5.20;;
23236;SDS011;11787;52.018;8.570;2023-05-08T00:04:00;6.35;;;5.22;;
23236;SDS011;11787;52.018;8.570;2023-05-08T00:06:26;5.47;;;4.93;;
23236;SDS011;11787;52.018;8.570;2023-05-08T00:08:52;5.65;;;4.97;;
23236;SDS011;11787;52.018;8.570;2023-05-08T00:11:18;8.23;;;5.10;;
23236;SDS011;11787;52.018;8.570;2023-05-08T00:13:44;5.35;;;4.85;;
23236;SDS011;11787;52.018;8.570;2023-05-08T00:16:10;5.95;;;4.90;;
23236;SDS011;11787;52.018;8.570;2023-05-08T00:18:36;5.57;;;4.97;;
23236;SDS011;11787;52.018;8.570;2023-05-08T00:21:03;5.65;;;5.05;;
23236;SDS011;11787;52.018;8.570;2023-05-08T00:23:29;6.10;;;4.85;;
23236;SDS011;11787;52.018;8.570;2023-05-08T00:25:55;5.57;;;5.07;;
23236;SDS011;11787;52.018;8.570;2023-05-08T00:28:21;5.32;;;4.82;;
23236;SDS011;11787;52.018;8.570;2023-05-08T00:30:46;5.72;;;5.22;;
23236;SDS011;11787;52.018;8.570;2023-05-08T00:33:12;6.70;;;5.22;;
23236;SDS011;11787;52.018;8.570;2023-05-08T00:35:38;6.45;;;5.47;;
23236;SDS011;11787;52.018;8.570;2023-05-08T00:38:06;6.13;;;5.35;;
23236;SDS011;11787;52.018;8.570;2023-05-08T00:40:31;5.82;;;5.22;;
23236;SDS011;11787;52.018;8.570;2023-05-08T00:42:57;6.95;;;5.22;;
23236;SDS011;11787;52.018;8.570;2023-05-08T00:45:23;6.35;;;5.75;;
23236;SDS011;11787;52.018;8.570;2023-05-08T00:47:48;6.68;;;6.07;;
23236;SDS011;11787;52.018;8.570;2023-05-08T00:50:14;5.53;;;5.03;;
23236;SDS011;11787;52.018;8.570;2023-05-08T00:52:41;6.35;;;5.75;;
23236;SDS011;11787;52.018;8.570;2023-05-08T00:55:07;5.82;;;5.32;;
23236;SDS011;11787;52.018;8.570;2023-05-08T00:57:33;6.35;;;5.75;;
23236;SDS011;11787;52.018;8.570;2023-05-08T01:00:00;5.90;;;5.38;;
23236;SDS011;11787;52.018;8.570;2023-05-08T01:02:27;6.13;;;5.60;;
23236;SDS011;11787;52.018;8.570;2023-05-08T01:04:55;6.10;;;5.50;;
23236;SDS011;11787;52.018;8.570;2023-05-08T01:07:21;6.53;;;5.93;;
23236;SDS011;11787;52.018;8.570;2023-05-08T01:09:47;6.07;;;5.47;;
23236;SDS011;11787;52.018;8.570;2023-05-08T01:12:21;6.90;;;6.25;;
23236;SDS011;11787;52.018;8.570;2023-05-08T01:15:04;6.80;;;6.20;;
23236;SDS011;11787;52.018;8.570;2023-05-08T01:20:31;7.20;;;6.00;;
23236;SDS011;11787;52.018;8.570;2023-05-08T01:27:04;8.85;;;6.32;;
23236;SDS011;11787;52.018;8.570;2023-05-08T01:29:26;7.10;;;6.40;;
23236;SDS011;11787;52.018;8.570;2023-05-08T01:32:28;7.50;;;6.60;;
23236;SDS011;11787;52.018;8.570;2023-05-08T01:34:59;7.75;;;6.97;;
23236;SDS011;11787;52.018;8.570;2023-05-08T01:37:50;8.15;;;6.38;;
23236;SDS011;11787;52.018;8.570;2023-05-08T01:40:25;7.28;;;6.57;;
23236;SDS011;11787;52.018;8.570;2023-05-08T01:45:47;7.75;;;6.28;;
23236;SDS011;11787;52.018;8.570;2023-05-08T01:48:33;8.45;;;7.03;;
23236;SDS011;11787;52.018;8.570;2023-05-08T01:51:07;7.20;;;6.50;;
23236;SDS011;11787;52.018;8.570;2023-05-08T01:53:41;7.65;;;6.95;;
23236;SDS011;11787;52.018;8.570;2023-05-08T01:56:12;7.85;;;7.05;;
23236;SDS011;11787;52.018;8.570;2023-05-08T01:58:41;7.68;;;6.97;;
23236;SDS011;11787;52.018;8.570;2023-05-08T02:01:08;7.95;;;7.15;;
23236;SDS011;11787;52.018;8.570;2023-05-08T02:03:36;7.80;;;7.05;;
23236;SDS011;11787;52.018;8.570;2023-05-08T02:06:05;9.48;;;6.80;;
23236;SDS011;11787;52.018;8.570;2023-05-08T02:08:34;8.80;;;7.38;;
23236;SDS011;11787;52.018;8.570;2023-05-08T02:11:01;8.25;;;7.40;;
23236;SDS011;11787;52.018;8.570;2023-05-08T02:13:29;8.18;;;7.38;;
23236;SDS011;11787;52.018;8.570;2023-05-08T02:15:58;8.38;;;7.18;;
23236;SDS011;11787;52.018;8.570;2023-05-08T02:18:25;8.63;;;7.80;;
23236;SDS011;11787;52.018;8.570;2023-05-08T02:20:53;8.48;;;7.68;;
23236;SDS011;11787;52.018;8.570;2023-05-08T02:23:21;8.02;;;7.22;;
23236;SDS011;11787;52.018;8.570;2023-05-08T02:25:49;8.98;;;8.18;;
23236;SDS011;11787;52.018;8.570;2023-05-08T02:28:15;8.10;;;7.30;;
23236;SDS011;11787;52.018;8.570;2023-05-08T02:30:43;8.52;;;7.65;;
23236;SDS011;11787;52.018;8.570;2023-05-08T02:33:11;9.93;;;7.93;;
23236;SDS011;11787;52.018;8.570;2023-05-08T02:35:39;8.73;;;7.85;;
23236;SDS011;11787;52.018;8.570;2023-05-08T02:38:07;8.73;;;7.72;;
23236;SDS011;11787;52.018;8.570;2023-05-08T02:40:35;8.55;;;7.75;;
23236;SDS011;11787;52.018;8.570;2023-05-08T02:43:03;9.40;;;8.05;;
23236;SDS011;11787;52.018;8.570;2023-05-08T02:45:35;9.13;;;7.72;;
23236;SDS011;11787;52.018;8.570;2023-05-08T02:56:43;8.38;;;7.65;;
23236;SDS011;11787;52.018;8.570;2023-05-08T02:59:18;9.18;;;7.75;;
23236;SDS011;11787;52.018;8.570;2023-05-08T03:01:49;9.32;;;8.43;;
23236;SDS011;11787;52.018;8.570;2023-05-08T03:04:30;9.43;;;8.55;;
23236;SDS011;11787;52.018;8.570;2023-05-08T03:06:59;8.80;;;8.00;;
23236;SDS011;11787;52.018;8.570;2023-05-08T03:09:27;9.82;;;8.88;;
23236;SDS011;11787;52.018;8.570;2023-05-08T03:12:02;9.10;;;8.20;;
23236;SDS011;11787;52.018;8.570;2023-05-08T03:14:34;9.93;;;9.00;;
23236;SDS011;11787;52.018;8.570;2023-05-08T03:17:03;9.05;;;8.15;;
23236;SDS011;11787;52.018;8.570;2023-05-08T03:19:33;10.60;;;9.13;;
23236;SDS011;11787;52.018;8.570;2023-05-08T03:22:01;9.35;;;8.55;;
23236;SDS011;11787;52.018;8.570;2023-05-08T03:24:30;10.05;;;8.98;;
23236;SDS011;11787;52.018;8.570;2023-05-08T03:27:00;9.95;;;8.77;;
23236;SDS011;11787;52.018;8.570;2023-05-08T03:29:28;10.40;;;9.30;;
23236;SDS011;11787;52.018;8.570;2023-05-08T03:31:55;9.70;;;8.77;;
23236;SDS011;11787;52.018;8.570;2023-05-08T03:34:24;9.85;;;8.90;;
23236;SDS011;11787;52.018;8.570;2023-05-08T03:36:50;10.65;;;9.63;;
23236;SDS011;11787;52.018;8.570;2023-05-08T03:39:16;10.50;;;9.40;;
23236;SDS011;11787;52.018;8.570;2023-05-08T03:41:42;10.98;;;9.63;;
23236;SDS011;11787;52.018;8.570;2023-05-08T03:44:07;10.30;;;9.30;;
23236;SDS011;11787;52.018;8.570;2023-05-08T03:46:34;10.13;;;9.13;;
23236;SDS011;11787;52.018;8.570;2023-05-08T03:49:03;10.13;;;9.13;;
23236;SDS011;11787;52.018;8.570;2023-05-08T03:51:30;12.98;;;11.32;;
23236;SDS011;11787;52.018;8.570;2023-05-08T03:53:56;12.35;;;10.10;;
23236;SDS011;11787;52.018;8.570;2023-05-08T03:56:21;11.57;;;9.35;;
23236;SDS011;11787;52.018;8.570;2023-05-08T03:58:49;11.10;;;10.00;;
23236;SDS011;11787;52.018;8.570;2023-05-08T04:01:41;10.88;;;9.77;;
23236;SDS011;11787;52.018;8.570;2023-05-08T04:04:23;11.32;;;10.27;;
23236;SDS011;11787;52.018;8.570;2023-05-08T04:07:09;10.13;;;9.23;;
23236;SDS011;11787;52.018;8.570;2023-05-08T04:10:23;10.30;;;9.30;;
23236;SDS011;11787;52.018;8.570;2023-05-08T04:15:18;9.73;;;8.73;;
23236;SDS011;11787;52.018;8.570;2023-05-08T04:17:52;10.48;;;9.48;;
23236;SDS011;11787;52.018;8.570;2023-05-08T04:20:21;12.60;;;10.68;;
23236;SDS011;11787;52.018;8.570;2023-05-08T04:22:51;11.00;;;10.00;;
23236;SDS011;11787;52.018;8.570;2023-05-08T04:25:19;11.18;;;10.13;;
23236;SDS011;11787;52.018;8.570;2023-05-08T04:27:45;11.50;;;9.98;;
23236;SDS011;11787;52.018;8.570;2023-05-08T04:30:11;10.60;;;9.60;;
23236;SDS011;11787;52.018;8.570;2023-05-08T04:32:38;11.32;;;10.23;;
23236;SDS011;11787;52.018;8.570;2023-05-08T04:35:05;10.23;;;9.23;;
23236;SDS011;11787;52.018;8.570;2023-05-08T04:37:31;13.68;;;9.90;;
23236;SDS011;11787;52.018;8.570;2023-05-08T04:39:57;12.93;;;11.43;;
23236;SDS011;11787;52.018;8.570;2023-05-08T04:42:23;11.93;;;10.70;;
23236;SDS011;11787;52.018;8.570;2023-05-08T04:44:50;11.98;;;10.80;;
23236;SDS011;11787;52.018;8.570;2023-05-08T04:47:16;11.65;;;10.50;;
23236;SDS011;11787;52.018;8.570;2023-05-08T04:49:41;11.60;;;10.50;;
23236;SDS011;11787;52.018;8.570;2023-05-08T04:52:07;11.48;;;10.43;;
23236;SDS011;11787;52.018;8.570;2023-05-08T04:54:33;12.50;;;11.20;;
23236;SDS011;11787;52.018;8.570;2023-05-08T04:56:58;12.68;;;11.38;;
23236;SDS011;11787;52.018;8.570;2023-05-08T04:59:24;11.60;;;10.45;;
23236;SDS011;11787;52.018;8.570;2023-05-08T05:01:50;11.68;;;10.55;;
23236;SDS011;11787;52.018;8.570;2023-05-08T05:04:15;11.43;;;10.25;;
23236;SDS011;11787;52.018;8.570;2023-05-08T05:06:41;11.45;;;10.05;;
23236;SDS011;11787;52.018;8.570;2023-05-08T05:09:07;15.70;;;11.05;;
23236;SDS011;11787;52.018;8.570;2023-05-08T05:11:33;11.63;;;10.48;;
23236;SDS011;11787;52.018;8.570;2023-05-08T05:13:58;12.82;;;11.52;;
23236;SDS011;11787;52.018;8.570;2023-05-08T05:16:24;16.90;;;10.40;;
23236;SDS011;11787;52.018;8.570;2023-05-08T05:18:51;12.48;;;10.27;;
23236;SDS011;11787;52.018;8.570;2023-05-08T05:21:17;10.75;;;9.75;;
23236;SDS011;11787;52.018;8.570;2023-05-08T05:23:43;12.80;;;11.65;;
23236;SDS011;11787;52.018;8.570;2023-05-08T05:26:08;12.57;;;10.13;;
23236;SDS011;11787;52.018;8.570;2023-05-08T05:28:34;12.25;;;11.05;;
23236;SDS011;11787;52.018;8.570;2023-05-08T05:33:25;10.90;;;9.88;;
23236;SDS011;11787;52.018;8.570;2023-05-08T05:35:51;13.27;;;10.93;;
23236;SDS011;11787;52.018;8.570;2023-05-08T05:38:16;11.57;;;10.48;;
23236;SDS011;11787;52.018;8.570;2023-05-08T05:40:42;11.68;;;10.48;;
23236;SDS011;11787;52.018;8.570;2023-05-08T05:43:08;11.50;;;10.40;;
23236;SDS011;11787;52.018;8.570;2023-05-08T05:45:33;11.02;;;9.93;;
23236;SDS011;11787;52.018;8.570;2023-05-08T05:48:00;10.80;;;9.80;;
23236;SDS011;11787;52.018;8.570;2023-05-08T05:50:26;10.88;;;9.88;;
23236;SDS011;11787;52.018;8.570;2023-05-08T05:52:52;11.60;;;10.55;;
23236;SDS011;11787;52.018;8.570;2023-05-08T05:55:18;10.50;;;9.50;;
23236;SDS011;11787;52.018;8.570;2023-05-08T05:57:44;11.57;;;9.57;;
23236;SDS011;11787;52.018;8.570;2023-05-08T06:00:10;10.32;;;9.32;;
23236;SDS011;11787;52.018;8.570;2023-05-08T06:02:36;10.50;;;9.50;;
23236;SDS011;11787;52.018;8.570;2023-05-08T06:05:02;10.20;;;9.20;;
23236;SDS011;11787;52.018;8.570;2023-05-08T06:07:28;10.82;;;9.77;;
23236;SDS011;11787;52.018;8.570;2023-05-08T06:09:54;10.65;;;9.70;;
23236;SDS011;11787;52.018;8.570;2023-05-08T06:12:20;10.93;;;9.95;;
23236;SDS011;11787;52.018;8.570;2023-05-08T06:14:46;11.50;;;10.30;;
23236;SDS011;11787;52.018;8.570;2023-05-08T06:17:12;10.70;;;9.60;;
23236;SDS011;11787;52.018;8.570;2023-05-08T06:19:37;11.45;;;10.25;;
23236;SDS011;11787;52.018;8.570;2023-05-08T06:22:03;11.55;;;10.30;;
23236;SDS011;11787;52.018;8.570;2023-05-08T06:24:28;11.88;;;10.68;;
23236;SDS011;11787;52.018;8.570;2023-05-08T06:26:54;10.73;;;9.57;;
23236;SDS011;11787;52.018;8.570;2023-05-08T06:29:20;12.45;;;9.32;;
23236;SDS011;11787;52.018;8.570;2023-05-08T06:31:46;10.95;;;9.85;;
23236;SDS011;11787;52.018;8.570;2023-05-08T06:34:11;11.25;;;10.15;;
23236;SDS011;11787;52.018;8.570;2023-05-08T06:36:37;10.77;;;9.55;;
23236;SDS011;11787;52.018;8.570;2023-05-08T06:39:03;10.68;;;9.55;;
23236;SDS011;11787;52.018;8.570;2023-05-08T06:41:32;9.98;;;8.98;;
23236;SDS011;11787;52.018;8.570;2023-05-08T06:43:58;11.20;;;10.05;;
23236;SDS011;11787;52.018;8.570;2023-05-08T06:46:23;10.45;;;9.48;;
23236;SDS011;11787;52.018;8.570;2023-05-08T06:48:49;10.27;;;9.27;;
23236;SDS011;11787;52.018;8.570;2023-05-08T06:51:14;10.90;;;9.80;;
23236;SDS011;11787;52.018;8.570;2023-05-08T06:53:40;10.00;;;9.00;;
23236;SDS011;11787;52.018;8.570;2023-05-08T06:56:06;10.63;;;9.52;;
23236;SDS011;11787;52.018;8.570;2023-05-08T06:58:31;10.68;;;9.57;;
23236;SDS011;11787;52.018;8.570;2023-05-08T07:01:00;11.20;;;10.07;;
23236;SDS011;11787;52.018;8.570;2023-05-08T07:03:26;12.07;;;10.85;;
23236;SDS011;11787;52.018;8.570;2023-05-08T07:05:52;11.90;;;10.80;;
23236;SDS011;11787;52.018;8.570;2023-05-08T07:08:17;11.13;;;10.07;;
23236;SDS011;11787;52.018;8.570;2023-05-08T07:10:43;14.13;;;10.20;;
23236;SDS011;11787;52.018;8.570;2023-05-08T07:13:09;11.63;;;9.73;;
23236;SDS011;11787;52.018;8.570;2023-05-08T07:15:35;10.82;;;9.82;;
23236;SDS011;11787;52.018;8.570;2023-05-08T07:18:00;11.27;;;10.18;;
23236;SDS011;11787;52.018;8.570;2023-05-08T07:20:26;10.13;;;9.18;;
23236;SDS011;11787;52.018;8.570;2023-05-08T07:22:52;10.00;;;9.10;;
23236;SDS011;11787;52.018;8.570;2023-05-08T07:25:17;10.13;;;9.15;;
23236;SDS011;11787;52.018;8.570;2023-05-08T07:27:43;10.90;;;9.57;;
23236;SDS011;11787;52.018;8.570;2023-05-08T07:30:09;10.05;;;9.05;;
23236;SDS011;11787;52.018;8.570;2023-05-08T07:32:35;12.40;;;9.88;;
23236;SDS011;11787;52.018;8.570;2023-05-08T07:35:02;10.60;;;9.68;;
23236;SDS011;11787;52.018;8.570;2023-05-08T07:37:30;11.13;;;10.02;;
23236;SDS011;11787;52.018;8.570;2023-05-08T07:39:55;11.05;;;10.05;;
23236;SDS011;11787;52.018;8.570;2023-05-08T07:42:21;11.30;;;10.20;;
23236;SDS011;11787;52.018;8.570;2023-05-08T07:44:47;11.20;;;10.18;;
23236;SDS011;11787;52.018;8.570;2023-05-08T07:47:12;11.18;;;10.07;;
23236;SDS011;11787;52.018;8.570;2023-05-08T07:49:38;12.40;;;9.13;;
23236;SDS011;11787;52.018;8.570;2023-05-08T07:52:04;10.68;;;9.65;;
23236;SDS011;11787;52.018;8.570;2023-05-08T07:54:29;10.45;;;9.45;;
23236;SDS011;11787;52.018;8.570;2023-05-08T07:56:55;10.10;;;9.10;;
23236;SDS011;11787;52.018;8.570;2023-05-08T07:59:21;10.60;;;9.50;;
23236;SDS011;11787;52.018;8.570;2023-05-08T08:01:46;9.93;;;8.57;;
23236;SDS011;11787;52.018;8.570;2023-05-08T08:04:12;9.90;;;8.88;;
23236;SDS011;11787;52.018;8.570;2023-05-08T08:06:41;9.48;;;8.57;;
23236;SDS011;11787;52.018;8.570;2023-05-08T08:09:06;10.00;;;9.10;;
23236;SDS011;11787;52.018;8.570;2023-05-08T08:11:32;10.68;;;9.68;;
23236;SDS011;11787;52.018;8.570;2023-05-08T08:13:57;12.18;;;8.82;;
23236;SDS011;11787;52.018;8.570;2023-05-08T08:16:23;9.82;;;8.95;;
23236;SDS011;11787;52.018;8.570;2023-05-08T08:18:49;10.85;;;9.27;;
23236;SDS011;11787;52.018;8.570;2023-05-08T08:21:16;9.45;;;8.45;;
23236;SDS011;11787;52.018;8.570;2023-05-08T08:23:42;9.43;;;8.52;;
23236;SDS011;11787;52.018;8.570;2023-05-08T08:26:08;9.27;;;7.90;;
23236;SDS011;11787;52.018;8.570;2023-05-08T08:28:33;9.20;;;8.23;;
23236;SDS011;11787;52.018;8.570;2023-05-08T08:30:59;8.20;;;7.40;;
23236;SDS011;11787;52.018;8.570;2023-05-08T08:33:26;8.95;;;8.15;;
23236;SDS011;11787;52.018;8.570;2023-05-08T08:35:53;8.98;;;8.18;;
23236;SDS011;11787;52.018;8.570;2023-05-08T08:38:19;13.18;;;7.88;;
23236;SDS011;11787;52.018;8.570;2023-05-08T08:40:44;9.70;;;8.55;;
23236;SDS011;11787;52.018;8.570;2023-05-08T08:43:10;9.23;;;8.32;;
23236;SDS011;11787;52.018;8.570;2023-05-08T08:45:36;10.23;;;8.60;;
23236;SDS011;11787;52.018;8.570;2023-05-08T08:48:02;9.45;;;8.23;;
23236;SDS011;11787;52.018;8.570;2023-05-08T08:50:31;8.98;;;8.10;;
23236;SDS011;11787;52.018;8.570;2023-05-08T08:55:29;10.25;;;8.73;;
23236;SDS011;11787;52.018;8.570;2023-05-08T09:00:43;8.40;;;7.40;;
23236;SDS011;11787;52.018;8.570;2023-05-08T09:03:10;8.32;;;7.53;;
23236;SDS011;11787;52.018;8.570;2023-05-08T09:05:35;8.27;;;7.57;;
23236;SDS011;11787;52.018;8.570;2023-05-08T09:08:02;8.88;;;7.95;;
23236;SDS011;11787;52.018;8.570;2023-05-08T09:10:29;8.77;;;7.82;;
23236;SDS011;11787;52.018;8.570;2023-05-08T09:12:55;8.57;;;7.78;;
23236;SDS011;11787;52.018;8.570;2023-05-08T09:15:20;8.77;;;7.97;;
23236;SDS011;11787;52.018;8.570;2023-05-08T09:25:04;9.60;;;7.90;;
23236;SDS011;11787;52.018;8.570;2023-05-08T09:34:51;7.45;;;6.75;;
23236;SDS011;11787;52.018;8.570;2023-05-08T09:37:17;9.68;;;8.55;;
23236;SDS011;11787;52.018;8.570;2023-05-08T09:39:43;10.00;;;7.15;;
23236;SDS011;11787;52.018;8.570;2023-05-08T10:35:58;7.20;;;6.25;;
23236;SDS011;11787;52.018;8.570;2023-05-08T10:38:24;7.85;;;7.15;;
23236;SDS011;11787;52.018;8.570;2023-05-08T10:40:52;8.27;;;6.93;;
23236;SDS011;11787;52.018;8.570;2023-05-08T10:43:22;7.90;;;7.13;;
23236;SDS011;11787;52.018;8.570;2023-05-08T10:45:49;8.05;;;7.35;;
23236;SDS011;11787;52.018;8.570;2023-05-08T10:51:01;8.45;;;7.75;;
23236;SDS011;11787;52.018;8.570;2023-05-08T10:56:13;8.18;;;7.47;;
23236;SDS011;11787;52.018;8.570;2023-05-08T10:58:38;8.40;;;7.47;;
23236;SDS011;11787;52.018;8.570;2023-05-08T11:03:42;8.23;;;7.53;;
23236;SDS011;11787;52.018;8.570;2023-05-08T11:06:09;8.48;;;7.68;;
23236;SDS011;11787;52.018;8.570;2023-05-08T11:08:46;8.57;;;7.70;;
23236;SDS011;11787;52.018;8.570;2023-05-08T11:11:23;8.10;;;7.30;;
23236;SDS011;11787;52.018;8.570;2023-05-08T11:19:18;8.02;;;7.07;;
23236;SDS011;11787;52.018;8.570;2023-05-08T11:25:00;8.32;;;7.53;;
23236;SDS011;11787;52.018;8.570;2023-05-08T11:30:17;7.65;;;6.85;;
23236;SDS011;11787;52.018;8.570;2023-05-08T11:38:24;7.63;;;6.82;;
23236;SDS011;11787;52.018;8.570;2023-05-08T11:43:34;8.15;;;6.85;;
23236;SDS011;11787;52.018;8.570;2023-05-08T11:46:06;7.68;;;6.50;;
23236;SDS011;11787;52.018;8.570;2023-05-08T11:51:04;7.32;;;6.63;;
23236;SDS011;11787;52.018;8.570;2023-05-08T11:53:30;7.30;;;6.60;;
23236;SDS011;11787;52.018;8.570;2023-05-08T11:55:57;9.93;;;6.70;;
23236;SDS011;11787;52.018;8.570;2023-05-08T11:58:24;6.82;;;6.18;;
23236;SDS011;11787;52.018;8.570;2023-05-08T12:00:50;8.38;;;7.68;;
23236;SDS011;11787;52.018;8.570;2023-05-08T12:03:17;8.23;;;7.45;;
23236;SDS011;11787;52.018;8.570;2023-05-08T12:05:43;7.85;;;7.15;;
23236;SDS011;11787;52.018;8.570;2023-05-08T12:08:11;7.95;;;7.15;;
23236;SDS011;11787;52.018;8.570;2023-05-08T12:52:10;9.70;;;6.70;;
23236;SDS011;11787;52.018;8.570;2023-05-08T12:54:38;7.05;;;6.45;;
23236;SDS011;11787;52.018;8.570;2023-05-08T12:57:10;9.52;;;5.85;;
23236;SDS011;11787;52.018;8.570;2023-05-08T12:59:44;8.23;;;6.13;;
23236;SDS011;11787;52.018;8.570;2023-05-08T13:02:16;7.03;;;6.18;;
23236;SDS011;11787;52.018;8.570;2023-05-08T13:04:45;16.92;;;8.07;;
23236;SDS011;11787;52.018;8.570;2023-05-08T13:07:10;8.63;;;7.15;;
23236;SDS011;11787;52.018;8.570;2023-05-08T13:09:36;10.93;;;6.80;;
23236;SDS011;11787;52.018;8.570;2023-05-08T13:12:02;13.30;;;7.03;;
23236;SDS011;11787;52.018;8.570;2023-05-08T13:14:29;6.55;;;5.95;;
23236;SDS011;11787;52.018;8.570;2023-05-08T13:16:55;7.03;;;5.82;;
23236;SDS011;11787;52.018;8.570;2023-05-08T13:19:20;7.28;;;6.68;;
23236;SDS011;11787;52.018;8.570;2023-05-08T13:21:46;8.18;;;5.75;;
23236;SDS011;11787;52.018;8.570;2023-05-08T13:24:12;5.88;;;5.28;;
23236;SDS011;11787;52.018;8.570;2023-05-08T13:26:38;8.45;;;5.65;;
23236;SDS011;11787;52.018;8.570;2023-05-08T13:29:04;5.80;;;4.95;;
23236;SDS011;11787;52.018;8.570;2023-05-08T13:31:30;6.40;;;5.38;;
23236;SDS011;11787;52.018;8.570;2023-05-08T13:33:55;5.78;;;5.28;;
23236;SDS011;11787;52.018;8.570;2023-05-08T13:36:21;5.63;;;5.07;;
23236;SDS011;11787;52.018;8.570;2023-05-08T13:38:47;6.22;;;4.95;;
23236;SDS011;11787;52.018;8.570;2023-05-08T13:41:12;6.18;;;5.15;;
23236;SDS011;11787;52.018;8.570;2023-05-08T13:43:38;6.05;;;4.45;;
23236;SDS011;11787;52.018;8.570;2023-05-08T13:46:04;5.22;;;4.47;;
23236;SDS011;11787;52.018;8.570;2023-05-08T13:48:29;7.25;;;5.45;;
23236;SDS011;11787;52.018;8.570;2023-05-08T13:50:55;6.40;;;5.65;;
23236;SDS011;11787;52.018;8.570;2023-05-08T13:53:20;6.38;;;5.75;;
23236;SDS011;11787;52.018;8.570;2023-05-08T13:55:46;6.60;;;5.68;;
23236;SDS011;11787;52.018;8.570;2023-05-08T13:58:11;5.03;;;4.50;;
23236;SDS011;11787;52.018;8.570;2023-05-08T14:00:37;6.38;;;5.38;;
23236;SDS011;11787;52.018;8.570;2023-05-08T14:03:03;7.75;;;7.05;;
23236;SDS011;11787;52.018;8.570;2023-05-08T14:05:28;5.63;;;5.05;;
23236;SDS011;11787;52.018;8.570;2023-05-08T14:07:54;5.60;;;5.00;;
23236;SDS011;11787;52.018;8.570;2023-05-08T14:10:19;6.05;;;4.68;;
23236;SDS011;11787;52.018;8.570;2023-05-08T14:12:45;5.55;;;5.05;;
23236;SDS011;11787;52.018;8.570;2023-05-08T14:15:11;6.03;;;4.60;;
23236;SDS011;11787;52.018;8.570;2023-05-08T14:17:36;5.10;;;4.70;;
23236;SDS011;11787;52.018;8.570;2023-05-08T14:20:02;6.10;;;4.95;;
23236;SDS011;11787;52.018;8.570;2023-05-08T14:22:28;5.28;;;4.72;;
23236;SDS011;11787;52.018;8.570;2023-05-08T14:24:53;5.88;;;4.80;;
23236;SDS011;11787;52.018;8.570;2023-05-08T14:27:19;6.38;;;4.50;;
23236;SDS011;11787;52.018;8.570;2023-05-08T14:29:45;5.10;;;4.38;;
23236;SDS011;11787;52.018;8.570;2023-05-08T14:32:11;4.93;;;4.38;;
23236;SDS011;11787;52.018;8.570;2023-05-08T14:34:36;5.18;;;4.78;;
23236;SDS011;11787;52.018;8.570;2023-05-08T14:37:02;4.80;;;4.38;;
23236;SDS011;11787;52.018;8.570;2023-05-08T14:39:27;4.93;;;4.53;;
23236;SDS011;11787;52.018;8.570;2023-05-08T14:41:53;4.53;;;3.83;;
23236;SDS011;11787;52.018;8.570;2023-05-08T14:44:19;4.72;;;4.32;;
23236;SDS011;11787;52.018;8.570;2023-05-08T14:46:45;6.22;;;4.93;;
23236;SDS011;11787;52.018;8.570;2023-05-08T14:49:11;5.93;;;4.65;;
23236;SDS011;11787;52.018;8.570;2023-05-08T14:51:36;5.32;;;4.00;;
23236;SDS011;11787;52.018;8.570;2023-05-08T14:54:02;5.60;;;4.80;;
23236;SDS011;11787;52.018;8.570;2023-05-08T14:56:28;6.82;;;5.18;;
23236;SDS011;11787;52.018;8.570;2023-05-08T14:58:53;5.70;;;5.20;;
23236;SDS011;11787;52.018;8.570;2023-05-08T15:01:20;7.30;;;5.68;;
23236;SDS011;11787;52.018;8.570;2023-05-08T15:03:46;6.07;;;5.53;;
23236;SDS011;11787;52.018;8.570;2023-05-08T15:06:17;6.45;;;5.85;;
23236;SDS011;11787;52.018;8.570;2023-05-08T15:27:02;6.25;;;5.55;;
23236;SDS011;11787;52.018;8.570;2023-05-08T15:29:28;7.78;;;5.35;;
23236;SDS011;11787;52.018;8.570;2023-05-08T15:31:54;5.90;;;5.40;;
23236;SDS011;11787;52.018;8.570;2023-05-08T15:34:19;6.25;;;5.50;;
23236;SDS011;11787;52.018;8.570;2023-05-08T15:36:45;6.63;;;5.90;;
23236;SDS011;11787;52.018;8.570;2023-05-08T15:39:11;8.90;;;5.88;;
23236;SDS011;11787;52.018;8.570;2023-05-08T15:41:37;7.53;;;6.10;;
23236;SDS011;11787;52.018;8.570;2023-05-08T15:44:05;6.38;;;5.60;;
23236;SDS011;11787;52.018;8.570;2023-05-08T15:46:33;6.55;;;5.95;;
23236;SDS011;11787;52.018;8.570;2023-05-08T15:48:59;7.07;;;5.95;;
23236;SDS011;11787;52.018;8.570;2023-05-08T15:51:25;7.35;;;6.63;;
23236;SDS011;11787;52.018;8.570;2023-05-08T15:53:50;7.80;;;7.10;;
23236;SDS011;11787;52.018;8.570;2023-05-08T15:56:17;7.97;;;7.18;;
23236;SDS011;11787;52.018;8.570;2023-05-08T15:58:48;8.07;;;7.35;;
23236;SDS011;11787;52.018;8.570;2023-05-08T16:01:15;7.93;;;7.13;;
23236;SDS011;11787;52.018;8.570;2023-05-08T16:03:41;7.15;;;6.50;;
23236;SDS011;11787;52.018;8.570;2023-05-08T16:06:07;7.90;;;7.10;;
23236;SDS011;11787;52.018;8.570;2023-05-08T16:08:32;6.57;;;5.97;;
23236;SDS011;11787;52.018;8.570;2023-05-08T16:10:58;7.10;;;6.50;;
23236;SDS011;11787;52.018;8.570;2023-05-08T16:13:25;6.68;;;6.07;;
23236;SDS011;11787;52.018;8.570;2023-05-08T16:15:50;7.28;;;6.15;;
23236;SDS011;11787;52.018;8.570;2023-05-08T16:18:16;8.35;;;7.40;;
23236;SDS011;11787;52.018;8.570;2023-05-08T16:20:41;9.10;;;8.30;;
23236;SDS011;11787;52.018;8.570;2023-05-08T16:23:07;9.20;;;8.30;;
23236;SDS011;11787;52.018;8.570;2023-05-08T16:25:33;8.88;;;8.02;;
23236;SDS011;11787;52.018;8.570;2023-05-08T16:27:58;9.75;;;8.30;;
23236;SDS011;11787;52.018;8.570;2023-05-08T16:30:24;8.88;;;8.07;;
23236;SDS011;11787;52.018;8.570;2023-05-08T16:32:50;8.35;;;7.55;;
23236;SDS011;11787;52.018;8.570;2023-05-08T16:35:15;10.15;;;8.30;;
23236;SDS011;11787;52.018;8.570;2023-05-08T16:37:41;8.55;;;7.75;;
23236;SDS011;11787;52.018;8.570;2023-05-08T16:40:07;7.70;;;7.00;;
23236;SDS011;11787;52.018;8.570;2023-05-08T16:42:33;7.25;;;6.45;;
23236;SDS011;11787;52.018;8.570;2023-05-08T16:45:00;6.47;;;5.88;;
23236;SDS011;11787;52.018;8.570;2023-05-08T16:47:25;6.30;;;5.70;;
23236;SDS011;11787;52.018;8.570;2023-05-08T16:49:51;5.63;;;5.13;;
23236;SDS011;11787;52.018;8.570;2023-05-08T16:52:17;5.97;;;5.38;;
23236;SDS011;11787;52.018;8.570;2023-05-08T16:54:43;5.88;;;5.38;;
23236;SDS011;11787;52.018;8.570;2023-05-08T16:57:08;5.93;;;5.38;;
23236;SDS011;11787;52.018;8.570;2023-05-08T16:59:34;5.25;;;4.85;;
23236;SDS011;11787;52.018;8.570;2023-05-08T17:02:00;5.72;;;5.13;;
23236;SDS011;11787;52.018;8.570;2023-05-08T17:04:25;6.03;;;5.32;;
23236;SDS011;11787;52.018;8.570;2023-05-08T17:06:51;6.32;;;5.72;;
23236;SDS011;11787;52.018;8.570;2023-05-08T17:09:16;6.72;;;6.13;;
23236;SDS011;11787;52.018;8.570;2023-05-08T17:11:42;6.57;;;5.95;;
23236;SDS011;11787;52.018;8.570;2023-05-08T17:14:08;6.00;;;5.50;;
23236;SDS011;11787;52.018;8.570;2023-05-08T17:16:34;6.82;;;5.80;;
23236;SDS011;11787;52.018;8.570;2023-05-08T17:18:59;6.07;;;5.45;;
23236;SDS011;11787;52.018;8.570;2023-05-08T17:21:25;5.75;;;5.25;;
23236;SDS011;11787;52.018;8.570;2023-05-08T17:23:51;5.50;;;5.00;;
23236;SDS011;11787;52.018;8.570;2023-05-08T17:26:16;4.95;;;4.55;;
23236;SDS011;11787;52.018;8.570;2023-05-08T17:28:42;4.53;;;4.13;;
23236;SDS011;11787;52.018;8.570;2023-05-08T17:31:08;7.72;;;7.03;;
23236;SDS011;11787;52.018;8.570;2023-05-08T17:33:33;4.55;;;4.15;;
23236;SDS011;11787;52.018;8.570;2023-05-08T17:36:00;5.40;;;4.10;;
23236;SDS011;11787;52.018;8.570;2023-05-08T17:38:26;4.68;;;4.28;;
23236;SDS011;11787;52.018;8.570;2023-05-08T17:41:07;4.95;;;4.20;;
23236;SDS011;11787;52.018;8.570;2023-05-08T17:43:33;6.53;;;4.60;;
23236;SDS011;11787;52.018;8.570;2023-05-08T17:45:59;4.90;;;4.47;;
23236;SDS011;11787;52.018;8.570;2023-05-08T17:48:25;4.60;;;4.15;;